createdAt,value
2018-09-24T00:00:29.472Z,9.17
2018-09-24T00:01:29.503Z,9.20
2018-09-24T00:02:29.546Z,9.14
2018-09-24T00:03:29.583Z,9.14
2018-09-24T00:04:29.621Z,9.15
2018-09-24T00:05:29.659Z,9.14
2018-09-24T00:06:29.698Z,9.18
2018-09-24T00:07:29.735Z,9.14
2018-09-24T00:08:29.772Z,9.14
2018-09-24T00:09:29.809Z,9.14
2018-09-24T00:10:29.848Z,9.14
2018-09-24T00:11:29.887Z,9.18
2018-09-24T00:12:29.924Z,9.23
2018-09-24T00:13:29.963Z,9.28
2018-09-24T00:14:30.000Z,9.32
2018-09-24T00:15:30.037Z,9.24
2018-09-24T00:16:30.076Z,9.24
2018-09-24T00:17:30.117Z,9.24
2018-09-24T00:18:30.151Z,9.31
2018-09-24T00:19:30.190Z,9.24
2018-09-24T00:20:30.227Z,9.29
2018-09-24T00:21:30.266Z,9.15
2018-09-24T00:22:30.308Z,9.26
2018-09-24T00:23:30.341Z,9.24
2018-09-24T00:24:30.381Z,9.17
2018-09-24T00:25:30.418Z,9.24
2018-09-24T00:26:30.458Z,9.20
2018-09-24T00:27:30.506Z,9.23
2018-09-24T00:28:30.532Z,9.21
2018-09-24T00:29:30.570Z,9.21
2018-09-24T00:30:30.616Z,9.20
2018-09-24T00:31:30.646Z,9.14
2018-09-24T00:32:30.685Z,9.13
2018-09-24T00:33:30.730Z,9.15
2018-09-24T00:34:30.762Z,9.17
2018-09-24T00:35:30.799Z,9.13
2018-09-24T00:36:30.835Z,9.13
2018-09-24T00:37:30.876Z,9.17
2018-09-24T00:38:30.912Z,9.23
2018-09-24T00:39:30.957Z,9.24
2018-09-24T00:40:30.988Z,9.21
2018-09-24T00:41:31.027Z,9.23
2018-09-24T00:42:31.068Z,9.24
2018-09-24T00:43:31.207Z,9.23
2018-09-24T00:44:31.139Z,9.26
2018-09-24T00:45:31.178Z,9.20
2018-09-24T00:46:31.216Z,9.31
2018-09-24T00:47:31.255Z,9.38
2018-09-24T00:48:31.291Z,9.36
2018-09-24T00:49:31.331Z,9.28
2018-09-24T00:50:31.368Z,9.21
2018-09-24T00:51:31.406Z,9.35
2018-09-24T00:52:31.445Z,9.26
2018-09-24T00:53:31.481Z,9.33
2018-09-24T00:54:31.520Z,9.38
2018-09-24T00:55:31.559Z,9.38
2018-09-24T00:56:31.597Z,9.35
2018-09-24T00:57:31.634Z,9.36
2018-09-24T00:58:31.671Z,9.38
2018-09-24T00:59:31.711Z,9.33
2018-09-24T01:00:31.747Z,9.39
2018-09-24T01:01:31.785Z,9.39
2018-09-24T01:02:31.826Z,9.36
2018-09-24T01:03:31.863Z,9.46
2018-09-24T01:04:31.904Z,9.39
2018-09-24T01:05:31.937Z,9.35
2018-09-24T01:06:31.976Z,9.53
2018-09-24T01:07:32.016Z,9.51
2018-09-24T01:08:32.050Z,9.51
2018-09-24T01:09:32.089Z,9.57
2018-09-24T01:10:32.127Z,9.54
2018-09-24T01:11:32.166Z,9.54
2018-09-24T01:12:32.203Z,9.56
2018-09-24T01:13:32.242Z,9.56
2018-09-24T01:14:32.279Z,9.51
2018-09-24T01:15:32.318Z,9.64
2018-09-24T01:16:32.355Z,9.64
2018-09-24T01:17:32.396Z,9.60
2018-09-24T01:18:32.432Z,9.65
2018-09-24T01:19:32.470Z,9.61
2018-09-24T01:20:32.517Z,9.60
2018-09-24T01:21:32.547Z,9.65
2018-09-24T01:22:32.588Z,9.71
2018-09-24T01:23:32.630Z,9.74
2018-09-24T01:24:32.658Z,9.71
2018-09-24T01:25:32.701Z,9.71
2018-09-24T01:26:32.740Z,9.65
2018-09-24T01:27:32.774Z,9.68
2018-09-24T01:28:32.813Z,9.60
2018-09-24T01:29:32.857Z,9.64
2018-09-24T01:30:32.891Z,9.68
2018-09-24T01:31:32.930Z,9.69
2018-09-24T01:32:32.964Z,9.50
2018-09-24T01:33:33.010Z,9.60
2018-09-24T01:34:33.041Z,9.54
2018-09-24T01:35:33.079Z,9.53
2018-09-24T01:36:33.126Z,9.54
2018-09-24T01:37:33.157Z,9.48
2018-09-24T01:38:33.195Z,9.51
2018-09-24T01:39:33.233Z,9.33
2018-09-24T01:40:33.269Z,9.38
2018-09-24T01:41:33.307Z,9.35
2018-09-24T01:42:33.355Z,9.21
2018-09-24T01:43:33.383Z,9.24
2018-09-24T01:44:33.422Z,9.23
2018-09-24T01:45:33.460Z,9.21
2018-09-24T01:46:33.503Z,9.20
2018-09-24T01:47:33.540Z,9.18
2018-09-24T01:48:33.574Z,9.15
2018-09-24T01:49:33.612Z,9.14
2018-09-24T01:50:33.651Z,9.08
2018-09-24T01:51:33.691Z,9.08
2018-09-24T01:52:33.730Z,9.02
2018-09-24T01:53:33.766Z,8.91
2018-09-24T01:54:33.807Z,8.91
2018-09-24T01:55:33.840Z,8.86
2018-09-24T01:56:33.879Z,8.89
2018-09-24T01:57:33.919Z,8.86
2018-09-24T01:58:33.958Z,8.80
2018-09-24T01:59:33.995Z,8.81
2018-09-24T02:00:34.031Z,8.79
2018-09-24T02:01:34.070Z,8.68
2018-09-24T02:02:34.107Z,8.70
2018-09-24T02:03:34.145Z,8.70
2018-09-24T02:04:34.184Z,8.68
2018-09-24T02:05:34.223Z,8.59
2018-09-24T02:06:34.260Z,8.56
2018-09-24T02:07:34.303Z,8.55
2018-09-24T02:08:34.333Z,8.56
2018-09-24T02:09:34.372Z,8.52
2018-09-24T02:10:34.410Z,8.48
2018-09-24T02:11:34.451Z,8.40
2018-09-24T02:12:34.504Z,8.40
2018-09-24T02:13:34.524Z,8.37
2018-09-24T02:14:34.564Z,8.37
2018-09-24T02:15:34.602Z,8.38
2018-09-24T02:16:34.638Z,8.34
2018-09-24T02:17:34.676Z,8.23
2018-09-24T02:18:34.716Z,8.26
2018-09-24T02:19:34.751Z,8.25
2018-09-24T02:20:34.788Z,8.18
2018-09-24T02:21:34.827Z,8.19
2018-09-24T02:22:34.868Z,8.12
2018-09-24T02:23:34.906Z,8.12
2018-09-24T02:24:34.942Z,8.19
2018-09-24T02:25:34.980Z,8.15
2018-09-24T02:26:35.021Z,8.10
2018-09-24T02:27:35.057Z,8.12
2018-09-24T02:28:35.092Z,8.16
2018-09-24T02:29:35.131Z,8.10
2018-09-24T02:30:35.180Z,8.05
2018-09-24T02:31:35.211Z,8.16
2018-09-24T02:32:35.245Z,8.02
2018-09-24T02:33:35.284Z,8.12
2018-09-24T02:34:35.324Z,8.18
2018-09-24T02:35:35.360Z,8.22
2018-09-24T02:36:35.400Z,8.19
2018-09-24T02:37:35.437Z,8.15
2018-09-24T02:38:35.474Z,8.23
2018-09-24T02:39:35.513Z,8.15
2018-09-24T02:40:35.550Z,8.15
2018-09-24T02:41:35.587Z,8.15
2018-09-24T02:42:35.627Z,8.10
2018-09-24T02:43:35.665Z,7.98
2018-09-24T02:44:35.712Z,7.98
2018-09-24T02:45:35.739Z,8.01
2018-09-24T02:46:35.785Z,8.00
2018-09-24T02:47:35.816Z,7.97
2018-09-24T02:48:35.853Z,7.97
2018-09-24T02:49:35.899Z,7.97
2018-09-24T02:50:35.933Z,7.93
2018-09-24T02:51:35.967Z,7.83
2018-09-24T02:52:36.006Z,7.82
2018-09-24T02:53:36.043Z,7.72
2018-09-24T02:54:36.081Z,7.75
2018-09-24T02:55:36.119Z,7.74
2018-09-24T02:56:36.156Z,7.72
2018-09-24T02:57:36.202Z,7.68
2018-09-24T02:58:36.250Z,7.63
2018-09-24T02:59:36.273Z,7.64
2018-09-24T03:00:36.309Z,7.58
2018-09-24T03:01:36.350Z,7.58
2018-09-24T03:02:36.386Z,7.67
2018-09-24T03:03:36.423Z,7.64
2018-09-24T03:04:36.460Z,7.55
2018-09-24T03:05:36.497Z,7.49
2018-09-24T03:06:36.537Z,7.52
2018-09-24T03:07:36.624Z,7.57
2018-09-24T03:08:36.611Z,7.52
2018-09-24T03:09:36.649Z,7.58
2018-09-24T03:10:36.697Z,7.55
2018-09-24T03:11:36.727Z,7.60
2018-09-24T03:12:36.768Z,7.58
2018-09-24T03:13:36.802Z,7.68
2018-09-24T03:14:36.838Z,7.69
2018-09-24T03:15:36.879Z,7.71
2018-09-24T03:16:36.918Z,7.69
2018-09-24T03:17:36.951Z,7.82
2018-09-24T03:18:36.990Z,7.79
2018-09-24T03:19:37.034Z,7.83
2018-09-24T03:20:37.065Z,7.82
2018-09-24T03:21:37.102Z,7.90
2018-09-24T03:22:37.149Z,8.00
2018-09-24T03:23:37.185Z,8.01
2018-09-24T03:24:37.216Z,8.02
2018-09-24T03:25:37.256Z,8.08
2018-09-24T03:26:37.293Z,8.12
2018-09-24T03:27:37.331Z,8.15
2018-09-24T03:28:37.374Z,8.16
2018-09-24T03:29:37.415Z,8.20
2018-09-24T03:30:37.443Z,8.25
2018-09-24T03:31:37.481Z,8.23
2018-09-24T03:32:37.520Z,8.34
2018-09-24T03:33:37.559Z,8.40
2018-09-24T03:34:37.594Z,8.47
2018-09-24T03:35:37.633Z,8.48
2018-09-24T03:36:37.670Z,8.50
2018-09-24T03:37:37.708Z,8.61
2018-09-24T03:38:37.746Z,8.68
2018-09-24T03:39:37.784Z,8.65
2018-09-24T03:40:37.821Z,8.70
2018-09-24T03:41:37.860Z,8.79
2018-09-24T03:42:37.898Z,8.79
2018-09-24T03:43:37.938Z,8.79
2018-09-24T03:44:37.973Z,8.81
2018-09-24T03:45:38.011Z,8.81
2018-09-24T03:46:38.049Z,8.83
2018-09-24T03:47:38.137Z,8.81
2018-09-24T03:48:38.124Z,8.86
2018-09-24T03:49:38.161Z,8.81
2018-09-24T03:50:38.199Z,8.77
2018-09-24T03:51:38.237Z,8.77
2018-09-24T03:52:38.277Z,8.79
2018-09-24T03:53:38.313Z,8.83
2018-09-24T03:54:38.352Z,8.83
2018-09-24T03:55:38.397Z,8.86
2018-09-24T03:56:38.426Z,8.79
2018-09-24T03:57:38.466Z,8.86
2018-09-24T03:58:38.503Z,8.81
2018-09-24T03:59:38.541Z,8.83
2018-09-24T04:00:38.579Z,8.77
2018-09-24T04:01:38.617Z,8.83
2018-09-24T04:02:38.655Z,8.81
2018-09-24T04:03:38.692Z,8.79
2018-09-24T04:04:38.729Z,8.74
2018-09-24T04:05:38.767Z,8.66
2018-09-24T04:06:38.807Z,8.70
2018-09-24T04:07:38.844Z,8.68
2018-09-24T04:08:38.881Z,8.65
2018-09-24T04:09:38.949Z,8.62
2018-09-24T04:10:38.961Z,8.71
2018-09-24T04:11:39.005Z,8.65
2018-09-24T04:12:39.043Z,8.62
2018-09-24T04:13:39.073Z,8.71
2018-09-24T04:14:39.112Z,8.68
2018-09-24T04:15:39.148Z,8.63
2018-09-24T04:16:39.186Z,8.62
2018-09-24T04:17:39.226Z,8.59
2018-09-24T04:18:39.260Z,8.62
2018-09-24T04:19:39.368Z,8.68
2018-09-24T04:20:39.336Z,8.59
2018-09-24T04:21:39.372Z,8.47
2018-09-24T04:22:39.412Z,8.48
2018-09-24T04:23:39.450Z,8.56
2018-09-24T04:24:39.485Z,8.48
2018-09-24T04:25:39.524Z,8.58
2018-09-24T04:26:39.562Z,8.47
2018-09-24T04:27:39.607Z,8.44
2018-09-24T04:28:39.638Z,8.59
2018-09-24T04:29:39.676Z,8.52
2018-09-24T04:30:39.715Z,8.55
2018-09-24T04:31:39.753Z,8.52
2018-09-24T04:32:39.790Z,8.44
2018-09-24T04:33:39.827Z,8.44
2018-09-24T04:34:39.870Z,8.48
2018-09-24T04:35:39.902Z,8.47
2018-09-24T04:36:39.939Z,8.47
2018-09-24T04:37:39.979Z,8.50
2018-09-24T04:38:40.019Z,8.44
2018-09-24T04:39:40.129Z,8.45
2018-09-24T04:40:40.090Z,8.45
2018-09-24T04:41:40.286Z,8.48
2018-09-24T04:42:40.169Z,8.50
2018-09-24T04:43:40.208Z,8.45
2018-09-24T04:44:40.249Z,8.45
2018-09-24T04:45:40.282Z,8.48
2018-09-24T04:46:40.324Z,8.47
2018-09-24T04:47:40.356Z,8.53
2018-09-24T04:48:40.394Z,8.65
2018-09-24T04:49:40.445Z,8.59
2018-09-24T04:50:40.470Z,8.63
2018-09-24T04:51:40.518Z,8.71
2018-09-24T04:52:40.544Z,8.65
2018-09-24T04:53:40.583Z,8.71
2018-09-24T04:54:40.622Z,8.73
2018-09-24T04:55:40.669Z,8.84
2018-09-24T04:56:40.695Z,8.80
2018-09-24T04:57:40.734Z,8.81
2018-09-24T04:58:40.797Z,8.80
2018-09-24T04:59:40.809Z,8.84
2018-09-24T05:00:40.847Z,8.80
2018-09-24T05:01:40.885Z,8.76
2018-09-24T05:02:40.924Z,8.71
2018-09-24T05:03:40.966Z,8.73
2018-09-24T05:04:40.999Z,8.63
2018-09-24T05:05:41.037Z,8.73
2018-09-24T05:06:41.076Z,8.79
2018-09-24T05:07:41.112Z,8.77
2018-09-24T05:08:41.151Z,8.74
2018-09-24T05:09:41.192Z,8.70
2018-09-24T05:10:41.229Z,8.68
2018-09-24T05:11:41.272Z,8.73
2018-09-24T05:12:41.301Z,8.76
2018-09-24T05:13:41.340Z,8.70
2018-09-24T05:14:41.379Z,8.74
2018-09-24T05:15:41.417Z,8.68
2018-09-24T05:16:41.535Z,8.73
2018-09-24T05:17:41.490Z,8.68
2018-09-24T05:18:41.539Z,8.73
2018-09-24T05:19:41.567Z,8.80
2018-09-24T05:20:41.614Z,8.80
2018-09-24T05:21:41.644Z,8.79
2018-09-24T05:22:41.681Z,8.79
2018-09-24T05:23:41.718Z,8.79
2018-09-24T05:24:41.756Z,8.70
2018-09-24T05:25:41.794Z,8.65
2018-09-24T05:26:41.831Z,8.71
2018-09-24T05:27:41.870Z,8.62
2018-09-24T05:28:41.908Z,8.61
2018-09-24T05:29:41.945Z,8.61
2018-09-24T05:30:41.985Z,8.56
2018-09-24T05:31:42.021Z,8.52
2018-09-24T05:32:42.065Z,8.52
2018-09-24T05:33:42.126Z,8.50
2018-09-24T05:34:42.135Z,8.45
2018-09-24T05:35:42.172Z,8.43
2018-09-24T05:36:42.210Z,8.52
2018-09-24T05:37:42.248Z,8.41
2018-09-24T05:38:42.286Z,8.36
2018-09-24T05:39:42.324Z,8.43
2018-09-24T05:40:42.362Z,8.30
2018-09-24T05:41:42.402Z,8.33
2018-09-24T05:42:42.438Z,8.30
2018-09-24T05:43:42.477Z,8.29
2018-09-24T05:44:42.513Z,8.22
2018-09-24T05:45:42.559Z,8.20
2018-09-24T05:46:42.590Z,8.15
2018-09-24T05:47:42.630Z,8.15
2018-09-24T05:48:42.667Z,8.19
2018-09-24T05:49:42.712Z,8.23
2018-09-24T05:50:42.743Z,8.23
2018-09-24T05:51:42.789Z,8.36
2018-09-24T05:52:42.819Z,8.33
2018-09-24T05:53:42.860Z,8.34
2018-09-24T05:54:42.896Z,8.45
2018-09-24T05:55:42.932Z,8.45
2018-09-24T05:56:42.988Z,8.47
2018-09-24T05:57:43.008Z,8.59
2018-09-24T05:58:43.046Z,8.56
2018-09-24T05:59:43.085Z,8.47
2018-09-24T06:00:43.131Z,8.50
2018-09-24T06:01:43.163Z,8.53
2018-09-24T06:02:43.197Z,8.56
2018-09-24T06:03:43.243Z,8.59
2018-09-24T06:04:43.375Z,8.58
2018-09-24T06:05:43.312Z,8.59
2018-09-24T06:06:43.351Z,8.55
2018-09-24T06:07:43.398Z,8.56
2018-09-24T06:08:43.427Z,8.59
2018-09-24T06:09:43.468Z,8.62
2018-09-24T06:10:43.508Z,8.62
2018-09-24T06:11:43.542Z,8.70
2018-09-24T06:12:43.578Z,8.63
2018-09-24T06:13:43.680Z,8.79
2018-09-24T06:14:43.656Z,8.81
2018-09-24T06:15:43.696Z,8.73
2018-09-24T06:16:43.731Z,8.80
2018-09-24T06:17:43.770Z,8.79
2018-09-24T06:18:43.809Z,8.74
2018-09-24T06:19:43.850Z,8.77
2018-09-24T06:20:43.883Z,8.76
2018-09-24T06:21:43.923Z,8.84
2018-09-24T06:22:43.962Z,8.84
2018-09-24T06:23:44.000Z,8.83
2018-09-24T06:24:44.038Z,8.86
2018-09-24T06:25:44.081Z,8.86
2018-09-24T06:26:44.113Z,8.80
2018-09-24T06:27:44.156Z,8.84
2018-09-24T06:28:44.187Z,8.94
2018-09-24T06:29:44.246Z,8.84
2018-09-24T06:30:44.265Z,8.96
2018-09-24T06:31:44.311Z,8.84
2018-09-24T06:32:44.343Z,8.98
2018-09-24T06:33:44.379Z,8.83
2018-09-24T06:34:44.420Z,8.98
2018-09-24T06:35:44.457Z,8.98
2018-09-24T06:36:44.493Z,9.13
2018-09-24T06:37:44.540Z,9.23
2018-09-24T06:38:44.569Z,9.21
2018-09-24T06:39:44.608Z,9.23
2018-09-24T06:40:44.646Z,9.21
2018-09-24T06:41:44.685Z,9.24
2018-09-24T06:42:44.723Z,9.24
2018-09-24T06:43:44.760Z,9.21
2018-09-24T06:44:44.804Z,9.31
2018-09-24T06:45:44.841Z,9.35
2018-09-24T06:46:44.876Z,9.35
2018-09-24T06:47:44.912Z,9.47
2018-09-24T06:48:44.952Z,9.56
2018-09-24T06:49:45.010Z,9.51
2018-09-24T06:50:45.029Z,9.65
2018-09-24T06:51:45.066Z,9.71
2018-09-24T06:52:45.104Z,9.79
2018-09-24T06:53:45.142Z,9.79
2018-09-24T06:54:45.190Z,9.75
2018-09-24T06:55:45.219Z,9.75
2018-09-24T06:56:45.266Z,9.84
2018-09-24T06:57:45.299Z,9.81
2018-09-24T06:58:45.333Z,9.94
2018-09-24T06:59:45.373Z,9.90
2018-09-24T07:00:45.410Z,9.93
2018-09-24T07:01:45.447Z,9.87
2018-09-24T07:02:45.485Z,9.94
2018-09-24T07:03:45.523Z,9.91
2018-09-24T07:04:45.562Z,9.91
2018-09-24T07:05:45.629Z,9.99
2018-09-24T07:06:45.639Z,9.90
2018-09-24T07:07:45.677Z,9.99
2018-09-24T07:08:45.714Z,10.11
2018-09-24T07:09:45.769Z,10.08
2018-09-24T07:10:45.791Z,10.09
2018-09-24T07:11:45.830Z,10.15
2018-09-24T07:12:45.870Z,10.22
2018-09-24T07:13:45.907Z,10.20
2018-09-24T07:14:45.943Z,10.30
2018-09-24T07:15:45.984Z,10.33
2018-09-24T07:16:46.021Z,10.20
2018-09-24T07:17:46.059Z,10.34
2018-09-24T07:18:46.102Z,10.26
2018-09-24T07:19:46.140Z,10.44
2018-09-24T07:20:46.176Z,10.27
2018-09-24T07:21:46.217Z,10.33
2018-09-24T07:22:46.253Z,10.44
2018-09-24T07:23:46.291Z,10.36
2018-09-24T07:24:46.335Z,10.47
2018-09-24T07:25:46.365Z,10.52
2018-09-24T07:26:46.403Z,10.56
2018-09-24T07:27:46.580Z,10.38
2018-09-24T07:28:46.481Z,10.44
2018-09-24T07:29:46.537Z,10.53
2018-09-24T07:30:46.559Z,10.60
2018-09-24T07:31:46.605Z,10.55
2018-09-24T07:32:46.681Z,10.68
2018-09-24T07:33:46.671Z,10.63
2018-09-24T07:34:46.708Z,10.64
2018-09-24T07:35:46.748Z,10.61
2018-09-24T07:36:46.785Z,10.64
2018-09-24T07:37:46.831Z,10.63
2018-09-24T07:38:46.863Z,10.59
2018-09-24T07:39:46.901Z,10.60
2018-09-24T07:40:46.939Z,10.60
2018-09-24T07:41:46.979Z,10.66
2018-09-24T07:42:47.018Z,10.64
2018-09-24T07:43:47.054Z,10.61
2018-09-24T07:44:47.091Z,10.61
2018-09-24T07:45:47.233Z,10.66
2018-09-24T07:46:47.169Z,10.68
2018-09-24T07:47:47.207Z,10.70
2018-09-24T07:48:47.245Z,10.71
2018-09-24T07:49:47.298Z,10.66
2018-09-24T07:50:47.325Z,10.76
2018-09-24T07:51:47.362Z,10.88
2018-09-24T07:52:47.400Z,10.94
2018-09-24T07:53:47.463Z,10.96
2018-09-24T07:54:47.477Z,11.00
2018-09-24T07:55:47.521Z,10.96
2018-09-24T07:56:47.556Z,11.06
2018-09-24T07:57:47.593Z,11.09
2018-09-24T07:58:47.630Z,11.00
2018-09-24T07:59:47.678Z,11.09
2018-09-24T08:00:47.721Z,11.10
2018-09-24T08:01:47.745Z,11.14
2018-09-24T08:02:47.784Z,11.14
2018-09-24T08:03:47.824Z,11.19
2018-09-24T08:04:47.861Z,11.24
2018-09-24T08:05:47.900Z,11.24
2018-09-24T08:06:47.938Z,11.15
2018-09-24T08:07:47.976Z,11.11
2018-09-24T08:08:48.015Z,11.18
2018-09-24T08:09:48.053Z,11.18
2018-09-24T08:10:48.091Z,11.21
2018-09-24T08:11:48.132Z,11.22
2018-09-24T08:12:48.223Z,11.25
2018-09-24T08:13:48.208Z,11.35
2018-09-24T08:14:48.248Z,11.36
2018-09-24T08:15:48.286Z,11.29
2018-09-24T08:16:48.326Z,11.37
2018-09-24T08:17:48.369Z,11.54
2018-09-24T08:18:48.401Z,11.64
2018-09-24T08:19:48.441Z,11.80
2018-09-24T08:20:48.479Z,11.94
2018-09-24T08:21:48.518Z,11.88
2018-09-24T08:22:48.563Z,11.91
2018-09-24T08:23:48.597Z,11.96
2018-09-24T08:24:48.635Z,11.98
2018-09-24T08:25:48.672Z,12.12
2018-09-24T08:26:48.711Z,12.13
2018-09-24T08:27:48.750Z,12.34
2018-09-24T08:28:48.810Z,12.39
2018-09-24T08:29:48.828Z,12.42
2018-09-24T08:30:48.868Z,12.42
2018-09-24T08:31:48.905Z,12.38
2018-09-24T08:32:48.943Z,12.34
2018-09-24T08:33:48.981Z,12.31
2018-09-24T08:34:49.021Z,12.31
2018-09-24T08:35:49.061Z,12.38
2018-09-24T08:36:49.099Z,12.37
2018-09-24T08:37:49.140Z,12.50
2018-09-24T08:38:49.177Z,12.59
2018-09-24T08:39:49.218Z,12.64
2018-09-24T08:40:49.257Z,12.67
2018-09-24T08:41:49.300Z,12.72
2018-09-24T08:42:49.342Z,12.78
2018-09-24T08:43:49.374Z,13.00
2018-09-24T08:44:49.412Z,13.01
2018-09-24T08:45:49.452Z,12.97
2018-09-24T08:46:49.493Z,13.00
2018-09-24T08:47:49.532Z,13.01
2018-09-24T08:48:49.571Z,13.05
2018-09-24T08:49:49.696Z,13.03
2018-09-24T08:50:49.651Z,13.01
2018-09-24T08:51:49.690Z,13.00
2018-09-24T08:52:49.737Z,12.95
2018-09-24T08:53:49.780Z,12.93
2018-09-24T08:54:49.844Z,12.97
2018-09-24T08:55:49.847Z,12.96
2018-09-24T08:56:49.933Z,12.97
2018-09-24T08:57:49.934Z,13.00
2018-09-24T08:58:49.967Z,12.96
2018-09-24T08:59:50.016Z,13.01
2018-09-24T09:00:50.048Z,12.83
2018-09-24T09:01:50.089Z,13.03
2018-09-24T09:02:50.162Z,13.01
2018-09-24T09:03:50.164Z,13.19
2018-09-24T09:04:50.203Z,13.10
2018-09-24T09:05:50.267Z,13.14
2018-09-24T09:06:50.292Z,13.10
2018-09-24T09:07:50.323Z,13.22
2018-09-24T09:08:50.361Z,13.41
2018-09-24T09:09:50.402Z,13.44
2018-09-24T09:10:50.441Z,13.39
2018-09-24T09:11:50.483Z,13.39
2018-09-24T09:12:50.524Z,13.20
2018-09-24T09:13:50.563Z,13.29
2018-09-24T09:14:50.601Z,13.25
2018-09-24T09:15:50.642Z,13.30
2018-09-24T09:16:50.684Z,13.48
2018-09-24T09:17:50.830Z,13.60
2018-09-24T09:18:50.769Z,13.67
2018-09-24T09:19:50.814Z,13.66
2018-09-24T09:20:50.839Z,13.77
2018-09-24T09:21:50.879Z,13.82
2018-09-24T09:22:50.920Z,13.91
2018-09-24T09:23:51.166Z,13.85
2018-09-24T09:24:51.024Z,13.67
2018-09-24T09:25:51.047Z,13.67
2018-09-24T09:26:51.087Z,13.67
2018-09-24T09:27:51.167Z,13.64
2018-09-24T09:28:51.163Z,13.60
2018-09-24T09:29:51.328Z,13.46
2018-09-24T09:30:51.241Z,13.52
2018-09-24T09:31:51.281Z,13.51
2018-09-24T09:32:51.453Z,13.44
2018-09-24T09:33:51.701Z,13.44
2018-09-24T09:34:51.408Z,13.57
2018-09-24T09:35:51.439Z,13.38
2018-09-24T09:36:51.479Z,13.51
2018-09-24T09:37:51.519Z,13.57
2018-09-24T09:38:51.563Z,13.55
2018-09-24T09:39:51.602Z,13.51
2018-09-24T09:40:51.640Z,13.55
2018-09-24T09:41:51.678Z,13.57
2018-09-24T09:42:51.728Z,13.59
2018-09-24T09:43:51.760Z,13.57
2018-09-24T09:44:51.804Z,13.63
2018-09-24T09:45:51.839Z,13.71
2018-09-24T09:46:51.914Z,13.79
2018-09-24T09:47:51.923Z,13.78
2018-09-24T09:48:51.958Z,13.71
2018-09-24T09:49:51.998Z,13.66
2018-09-24T09:50:52.039Z,13.70
2018-09-24T09:51:52.080Z,13.67
2018-09-24T09:52:52.126Z,13.66
2018-09-24T09:53:52.158Z,13.70
2018-09-24T09:54:52.211Z,13.91
2018-09-24T09:55:52.238Z,13.99
2018-09-24T09:56:52.279Z,14.15
2018-09-24T09:57:52.318Z,14.27
2018-09-24T09:58:52.362Z,14.36
2018-09-24T09:59:52.400Z,14.39
2018-09-24T10:00:52.440Z,14.46
2018-09-24T10:01:52.478Z,14.64
2018-09-24T10:02:52.522Z,14.68
2018-09-24T10:03:52.561Z,14.81
2018-09-24T10:04:52.698Z,14.80
2018-09-24T10:05:52.657Z,14.89
2018-09-24T10:06:52.689Z,14.70
2018-09-24T10:07:52.720Z,14.80
2018-09-24T10:08:52.759Z,14.78
2018-09-24T10:09:52.802Z,14.95
2018-09-24T10:10:52.843Z,14.99
2018-09-24T10:11:52.883Z,15.06
2018-09-24T10:12:52.931Z,15.11
2018-09-24T10:13:52.964Z,15.02
2018-09-24T10:14:53.005Z,14.98
2018-09-24T10:15:53.045Z,15.06
2018-09-24T10:16:53.130Z,14.88
2018-09-24T10:17:53.125Z,14.88
2018-09-24T10:18:53.175Z,14.89
2018-09-24T10:19:53.208Z,14.81
2018-09-24T10:20:53.247Z,14.77
2018-09-24T10:21:53.289Z,14.81
2018-09-24T10:22:53.340Z,14.78
2018-09-24T10:23:53.373Z,14.78
2018-09-24T10:24:53.412Z,14.88
2018-09-24T10:25:53.453Z,14.80
2018-09-24T10:26:53.495Z,14.68
2018-09-24T10:27:53.539Z,14.52
2018-09-24T10:28:53.583Z,14.51
2018-09-24T10:29:53.620Z,14.40
2018-09-24T10:30:53.656Z,14.36
2018-09-24T10:31:53.696Z,14.35
2018-09-24T10:32:53.740Z,14.47
2018-09-24T10:33:53.816Z,14.45
2018-09-24T10:34:53.819Z,14.54
2018-09-24T10:35:53.946Z,14.51
2018-09-24T10:36:53.901Z,14.12
2018-09-24T10:37:53.940Z,13.66
2018-09-24T10:38:53.983Z,13.48
2018-09-24T10:39:54.034Z,13.26
2018-09-24T10:40:54.172Z,13.01
2018-09-24T10:41:54.208Z,12.79
2018-09-24T10:42:54.145Z,12.75
2018-09-24T10:43:54.186Z,12.70
2018-09-24T10:44:54.225Z,12.60
2018-09-24T10:45:54.322Z,12.52
2018-09-24T10:46:54.316Z,12.60
2018-09-24T10:47:54.355Z,12.78
2018-09-24T10:48:54.390Z,12.79
2018-09-24T10:49:54.433Z,12.87
2018-09-24T10:50:54.472Z,12.83
2018-09-24T10:51:54.508Z,12.92
2018-09-24T10:52:54.567Z,13.01
2018-09-24T10:53:54.595Z,13.11
2018-09-24T10:54:54.683Z,13.28
2018-09-24T10:55:54.703Z,13.39
2018-09-24T10:56:54.709Z,13.44
2018-09-24T10:57:54.751Z,13.46
2018-09-24T10:58:54.789Z,13.54
2018-09-24T10:59:54.838Z,13.51
2018-09-24T11:00:54.876Z,13.44
2018-09-24T11:01:54.910Z,13.44
2018-09-24T11:02:54.948Z,13.42
2018-09-24T11:03:54.989Z,13.57
2018-09-24T11:04:55.060Z,13.46
2018-09-24T11:05:55.077Z,13.42
2018-09-24T11:06:55.116Z,13.38
2018-09-24T11:07:55.150Z,13.42
2018-09-24T11:08:55.190Z,13.46
2018-09-24T11:09:55.231Z,13.48
2018-09-24T11:10:55.269Z,13.51
2018-09-24T11:11:55.311Z,13.63
2018-09-24T11:12:55.350Z,13.70
2018-09-24T11:13:55.390Z,13.91
2018-09-24T11:14:55.445Z,13.99
2018-09-24T11:15:55.491Z,14.06
2018-09-24T11:16:55.634Z,14.15
2018-09-24T11:17:55.707Z,14.45
2018-09-24T11:18:55.598Z,14.54
2018-09-24T11:19:55.633Z,14.69
2018-09-24T11:20:55.736Z,14.77
2018-09-24T11:21:55.712Z,14.70
2018-09-24T11:22:55.755Z,14.69
2018-09-24T11:23:55.799Z,14.50
2018-09-24T11:24:55.837Z,14.40
2018-09-24T11:25:55.873Z,14.47
2018-09-24T11:26:55.924Z,14.32
2018-09-24T11:27:55.976Z,14.35
2018-09-24T11:28:56.008Z,14.29
2018-09-24T11:29:56.047Z,14.25
2018-09-24T11:30:56.081Z,14.28
2018-09-24T11:31:56.121Z,14.14
2018-09-24T11:32:56.161Z,13.84
2018-09-24T11:33:56.209Z,13.54
2018-09-24T11:34:56.240Z,13.39
2018-09-24T11:35:56.281Z,13.32
2018-09-24T11:36:56.320Z,13.26
2018-09-24T11:37:56.369Z,13.22
2018-09-24T11:38:56.401Z,13.20
2018-09-24T11:39:56.442Z,13.38
2018-09-24T11:40:56.480Z,13.52
2018-09-24T11:41:56.523Z,13.62
2018-09-24T11:42:56.564Z,13.66
2018-09-24T11:43:56.605Z,13.64
2018-09-24T11:44:56.652Z,13.70
2018-09-24T11:45:56.685Z,13.85
2018-09-24T11:46:56.775Z,13.95
2018-09-24T11:47:56.769Z,14.15
2018-09-24T11:48:56.805Z,14.32
2018-09-24T11:49:56.847Z,14.40
2018-09-24T11:50:56.896Z,14.51
2018-09-24T11:51:56.927Z,14.45
2018-09-24T11:52:56.966Z,14.61
2018-09-24T11:53:57.008Z,14.52
2018-09-24T11:54:57.070Z,14.55
2018-09-24T11:55:57.096Z,14.46
2018-09-24T11:56:57.132Z,14.36
2018-09-24T11:57:57.171Z,14.36
2018-09-24T11:58:57.213Z,14.35
2018-09-24T11:59:57.253Z,14.54
2018-09-24T12:00:57.299Z,14.57
2018-09-24T12:01:57.385Z,14.62
2018-09-24T12:02:57.406Z,14.62
2018-09-24T12:03:57.415Z,14.68
2018-09-24T12:04:57.533Z,14.69
2018-09-24T12:05:57.501Z,14.84
2018-09-24T12:06:57.551Z,14.94
2018-09-24T12:07:57.577Z,14.92
2018-09-24T12:08:57.618Z,14.99
2018-09-24T12:09:57.660Z,15.02
2018-09-24T12:10:57.710Z,14.99
2018-09-24T12:11:57.744Z,15.01
2018-09-24T12:12:57.796Z,15.10
2018-09-24T12:13:57.822Z,15.27
2018-09-24T12:14:57.864Z,15.34
2018-09-24T12:15:57.914Z,15.44
2018-09-24T12:16:57.947Z,15.49
2018-09-24T12:17:58.045Z,15.64
2018-09-24T12:18:58.031Z,15.67
2018-09-24T12:19:58.113Z,15.65
2018-09-24T12:20:58.131Z,15.56
2018-09-24T12:21:58.151Z,15.38
2018-09-24T12:22:58.192Z,15.25
2018-09-24T12:23:58.245Z,15.11
2018-09-24T12:24:58.279Z,14.94
2018-09-24T12:25:58.319Z,14.81
2018-09-24T12:26:58.358Z,14.64
2018-09-24T12:27:58.476Z,14.57
2018-09-24T12:28:58.439Z,14.45
2018-09-24T12:29:58.530Z,13.79
2018-09-24T12:30:58.524Z,13.29
2018-09-24T12:31:58.562Z,12.72
2018-09-24T12:32:58.603Z,12.38
2018-09-24T12:33:58.641Z,11.98
2018-09-24T12:34:58.690Z,11.75
2018-09-24T12:35:58.732Z,11.52
2018-09-24T12:36:58.765Z,11.29
2018-09-24T12:37:58.812Z,11.11
2018-09-24T12:38:58.852Z,11.14
2018-09-24T12:39:58.903Z,11.06
2018-09-24T12:40:58.928Z,10.97
2018-09-24T12:41:58.972Z,10.92
2018-09-24T12:42:59.005Z,11.00
2018-09-24T12:43:59.124Z,11.02
2018-09-24T12:44:59.117Z,11.03
2018-09-24T12:45:59.150Z,11.04
2018-09-24T12:46:59.176Z,11.07
2018-09-24T12:47:59.240Z,11.19
2018-09-24T12:48:59.263Z,11.24
2018-09-24T12:49:59.285Z,11.24
2018-09-24T12:50:59.322Z,11.29
2018-09-24T12:51:59.365Z,11.39
2018-09-24T12:52:59.403Z,11.37
2018-09-24T12:53:59.443Z,11.47
2018-09-24T12:54:59.493Z,11.58
2018-09-24T12:55:59.522Z,11.72
2018-09-24T12:56:59.566Z,11.73
2018-09-24T12:57:59.613Z,11.86
2018-09-24T12:58:59.640Z,11.95
2018-09-24T12:59:59.680Z,11.88
2018-09-24T13:00:59.718Z,12.09
2018-09-24T13:01:59.784Z,12.12
2018-09-24T13:02:59.806Z,12.12
2018-09-24T13:03:59.841Z,12.24
2018-09-24T13:04:59.877Z,12.21
2018-09-24T13:05:59.920Z,12.12
2018-09-24T13:06:59.967Z,12.01